Time;durP1;ratioP1;P1;durP2;ratioP2;P2;SDS_P1;SDS_P2;PMS_P1;PMS_P2;Temp;Humidity;BMP_temperature;BMP_pressure;BME280_temperature;BME280_humidity;BME280_pressure;Samples;Min_cycle;Max_cycle;Signal;HPM_P1;HPM_P2
2022/03/06 00:01:26;;;;;;;20.88;11.18;;;4.80;42.50;;;;;;5020306;28;20041;-43
2022/03/06 00:03:55;;;;;;;20.60;10.38;;;4.80;42.60;;;;;;5018292;28;20061;-43
2022/03/06 00:06:23;;;;;;;19.38;10.18;;;4.80;42.60;;;;;;5020932;28;20501;-43
2022/03/06 00:08:50;;;;;;;20.30;10.07;;;4.80;42.70;;;;;;5021696;28;20054;-42
2022/03/06 00:11:18;;;;;;;25.27;12.07;;;4.70;43.20;;;;;;5019767;28;20053;-42
2022/03/06 00:13:45;;;;;;;24.45;11.75;;;4.70;42.70;;;;;;5019268;28;20057;-43
2022/03/06 00:16:13;;;;;;;23.35;11.30;;;4.70;42.90;;;;;;5022670;28;20421;-43
2022/03/06 00:18:40;;;;;;;22.50;11.15;;;4.70;42.90;;;;;;5017889;28;20058;-43
2022/03/06 00:21:10;;;;;;;18.27;10.07;;;4.70;42.90;;;;;;5021391;28;20061;-43
2022/03/06 00:23:37;;;;;;;20.38;10.95;;;4.60;42.90;;;;;;5019740;28;20061;-43
2022/03/06 00:26:05;;;;;;;21.65;11.77;;;4.60;43.00;;;;;;5022640;28;20076;-43
2022/03/06 00:28:32;;;;;;;25.63;12.00;;;4.60;43.00;;;;;;5025510;28;20486;-43
2022/03/06 00:31:00;;;;;;;22.17;11.20;;;4.60;43.00;;;;;;5024095;28;20045;-43
2022/03/06 00:33:27;;;;;;;21.25;11.32;;;4.60;43.00;;;;;;5024045;28;20053;-43
2022/03/06 00:35:55;;;;;;;20.60;10.63;;;4.60;43.10;;;;;;5024520;28;20378;-43
2022/03/06 00:38:24;;;;;;;19.63;11.05;;;4.50;43.10;;;;;;5023553;28;20485;-43
2022/03/06 00:40:52;;;;;;;23.90;13.00;;;4.50;43.10;;;;;;5025246;28;20050;-43
2022/03/06 00:43:21;;;;;;;21.98;11.65;;;4.50;43.10;;;;;;5023479;28;20061;-43
2022/03/06 00:45:48;;;;;;;21.98;11.55;;;4.40;43.00;;;;;;5022144;28;20076;-45
2022/03/06 00:48:16;;;;;;;23.48;12.68;;;4.40;43.00;;;;;;5023158;28;20057;-43
2022/03/06 00:50:43;;;;;;;23.17;12.05;;;4.40;43.00;;;;;;5024348;28;20052;-43
2022/03/06 00:53:11;;;;;;;30.95;13.32;;;4.30;43.00;;;;;;5024589;28;20057;-43
2022/03/06 00:55:40;;;;;;;24.55;12.27;;;4.30;43.00;;;;;;5021630;28;20480;-43
2022/03/06 00:58:09;;;;;;;26.60;12.15;;;4.30;43.10;;;;;;5023605;28;20057;-43
2022/03/06 01:00:41;;;;;;;26.30;12.52;;;4.30;43.10;;;;;;5023621;28;20056;-45
2022/03/06 01:03:10;;;;;;;23.40;12.02;;;4.30;43.10;;;;;;5022522;28;20053;-43
2022/03/06 01:05:38;;;;;;;25.77;12.68;;;4.20;43.10;;;;;;5022507;28;20486;-43
2022/03/06 01:08:06;;;;;;;25.38;13.43;;;4.20;43.20;;;;;;5024057;28;20057;-42
2022/03/06 01:10:35;;;;;;;25.15;11.57;;;4.20;43.20;;;;;;5024137;28;20053;-43
2022/03/06 01:13:06;;;;;;;25.80;12.20;;;4.20;43.40;;;;;;5023878;28;20056;-42
2022/03/06 01:15:33;;;;;;;21.80;11.68;;;4.10;43.40;;;;;;5022253;28;20090;-43
2022/03/06 01:18:01;;;;;;;23.88;12.43;;;4.10;43.40;;;;;;5024615;28;20053;-42
2022/03/06 01:20:29;;;;;;;25.48;12.48;;;4.10;43.50;;;;;;5021528;28;20168;-44
2022/03/06 01:22:56;;;;;;;23.35;12.15;;;4.10;43.60;;;;;;5025076;28;20505;-43
2022/03/06 01:25:24;;;;;;;25.40;12.95;;;4.00;43.60;;;;;;5020015;28;20049;-43
2022/03/06 01:27:51;;;;;;;22.20;12.13;;;4.00;43.60;;;;;;5024433;28;20068;-43
2022/03/06 01:30:21;;;;;;;26.40;13.18;;;4.00;43.70;;;;;;5022280;28;20053;-43
2022/03/06 01:32:49;;;;;;;25.33;12.30;;;4.00;43.70;;;;;;5024145;28;20049;-43
2022/03/06 01:35:17;;;;;;;22.17;11.48;;;3.90;43.70;;;;;;5021467;28;20056;-43
2022/03/06 01:37:45;;;;;;;21.52;11.07;;;4.00;43.90;;;;;;5023252;28;20102;-42
2022/03/06 01:40:14;;;;;;;21.63;11.73;;;3.90;43.90;;;;;;5023465;28;20064;-44
2022/03/06 01:42:43;;;;;;;23.27;12.35;;;3.90;43.90;;;;;;5024603;28;20064;-43
2022/03/06 01:45:12;;;;;;;23.20;11.68;;;3.90;43.80;;;;;;5019698;28;20049;-43
2022/03/06 01:47:42;;;;;;;23.77;12.32;;;3.90;43.90;;;;;;5024304;28;20053;-46
2022/03/06 01:50:14;;;;;;;24.85;12.93;;;3.90;43.90;;;;;;5019694;28;20041;-45
2022/03/06 01:52:41;;;;;;;26.10;12.90;;;3.90;44.00;;;;;;5022903;28;20060;-43
2022/03/06 01:55:10;;;;;;;22.70;12.15;;;3.80;43.90;;;;;;5021299;28;20057;-43
2022/03/06 01:57:39;;;;;;;23.77;12.70;;;3.80;44.00;;;;;;5021828;28;20049;-43
2022/03/06 02:00:20;;;;;;;21.65;11.77;;;3.80;44.00;;;;;;5018468;28;20053;-45
2022/03/06 02:02:49;;;;;;;26.88;13.05;;;3.80;44.10;;;;;;5018430;28;20045;-43
2022/03/06 02:05:16;;;;;;;25.25;12.85;;;3.80;44.10;;;;;;5019818;28;20052;-45
2022/03/06 02:07:44;;;;;;;27.40;12.80;;;3.80;44.20;;;;;;5021188;28;20060;-42
2022/03/06 02:10:14;;;;;;;25.42;12.43;;;3.80;44.30;;;;;;5021975;28;20053;-45
2022/03/06 02:12:42;;;;;;;21.92;11.48;;;3.70;44.20;;;;;;5022760;28;20060;-43
2022/03/06 02:15:12;;;;;;;21.98;11.60;;;3.70;44.30;;;;;;5018574;28;20399;-43
2022/03/06 02:17:40;;;;;;;26.40;13.40;;;3.70;44.30;;;;;;5022686;28;20050;-43
2022/03/06 02:20:14;;;;;;;26.42;12.93;;;3.70;44.30;;;;;;5022022;28;20057;-42
2022/03/06 02:22:45;;;;;;;29.73;13.80;;;3.70;44.40;;;;;;5024283;28;20060;-44
2022/03/06 02:25:16;;;;;;;27.40;13.43;;;3.70;44.40;;;;;;5020888;28;20061;-44
2022/03/06 02:27:43;;;;;;;31.05;14.40;;;3.60;44.40;;;;;;5021951;28;20049;-43
2022/03/06 02:30:14;;;;;;;26.33;13.07;;;3.60;44.40;;;;;;5022124;28;20050;-43
2022/03/06 02:32:42;;;;;;;30.60;14.25;;;3.60;44.40;;;;;;5020865;28;20076;-43
2022/03/06 02:35:10;;;;;;;24.67;12.75;;;3.60;44.50;;;;;;5019376;28;20060;-45
2022/03/06 02:37:38;;;;;;;29.98;14.13;;;3.60;44.50;;;;;;5019755;28;20053;-43
2022/03/06 02:40:09;;;;;;;29.23;14.70;;;3.50;44.50;;;;;;5020792;28;20068;-43
2022/03/06 02:42:38;;;;;;;26.88;14.07;;;3.50;44.60;;;;;;5023319;28;20058;-42
2022/03/06 02:45:09;;;;;;;27.80;13.25;;;3.50;44.60;;;;;;5019940;28;20053;-43
2022/03/06 02:47:36;;;;;;;27.40;14.25;;;3.50;44.70;;;;;;5023119;28;20053;-42
2022/03/06 02:50:06;;;;;;;25.02;12.88;;;3.50;44.70;;;;;;5019081;28;20416;-43
2022/03/06 02:52:34;;;;;;;26.48;13.75;;;3.40;44.70;;;;;;5023115;28;20058;-43
2022/03/06 02:55:02;;;;;;;24.33;12.38;;;3.50;44.70;;;;;;5022042;28;20270;-45
2022/03/06 02:57:31;;;;;;;26.45;12.95;;;3.40;44.70;;;;;;5023203;28;20057;-42
2022/03/06 02:59:58;;;;;;;24.95;12.70;;;3.40;44.80;;;;;;5019125;28;20053;-42
2022/03/06 03:02:26;;;;;;;23.58;11.70;;;3.40;44.80;;;;;;5022506;28;20057;-47
2022/03/06 03:04:54;;;;;;;24.23;12.10;;;3.40;44.80;;;;;;5019087;28;20061;-46
2022/03/06 03:07:22;;;;;;;25.95;12.57;;;3.40;44.80;;;;;;5020326;28;20057;-45
2022/03/06 03:09:50;;;;;;;26.25;12.65;;;3.30;44.80;;;;;;5021369;28;20065;-42
2022/03/06 03:12:17;;;;;;;21.98;10.60;;;3.30;44.90;;;;;;5023100;28;20061;-42
2022/03/06 03:14:46;;;;;;;25.02;11.60;;;3.30;44.90;;;;;;5020215;28;20060;-42
2022/03/06 03:17:14;;;;;;;24.70;11.48;;;3.30;44.90;;;;;;5022234;28;20049;-43
2022/03/06 03:19:41;;;;;;;20.05;10.73;;;3.30;44.90;;;;;;5020079;28;20053;-43
2022/03/06 03:22:09;;;;;;;21.02;11.32;;;3.30;44.90;;;;;;5021856;28;20053;-43
2022/03/06 03:24:36;;;;;;;25.50;11.35;;;3.30;45.00;;;;;;5019241;28;20497;-43
2022/03/06 03:27:04;;;;;;;22.60;11.23;;;3.30;45.00;;;;;;5022425;28;20409;-44
2022/03/06 03:29:31;;;;;;;21.40;11.20;;;3.30;45.10;;;;;;5022004;28;20401;-43
2022/03/06 03:32:00;;;;;;;23.98;12.40;;;3.30;45.10;;;;;;5021319;28;20054;-43
2022/03/06 03:34:28;;;;;;;23.10;11.80;;;3.30;45.30;;;;;;5018681;28;20061;-43
2022/03/06 03:36:55;;;;;;;20.02;11.07;;;3.30;45.20;;;;;;5022995;28;20053;-43
2022/03/06 03:39:23;;;;;;;24.77;12.35;;;3.30;45.30;;;;;;5019173;28;20064;-43
2022/03/06 03:41:50;;;;;;;20.23;11.52;;;3.40;45.40;;;;;;5021596;28;20410;-43
2022/03/06 03:44:18;;;;;;;23.55;11.90;;;3.40;45.30;;;;;;5019696;28;20056;-43
2022/03/06 03:46:45;;;;;;;22.63;11.10;;;3.40;45.30;;;;;;5021628;28;20064;-43
2022/03/06 03:49:14;;;;;;;26.20;11.85;;;3.40;45.30;;;;;;5020692;28;20424;-43
2022/03/06 03:51:42;;;;;;;22.98;11.07;;;3.40;45.40;;;;;;5021586;28;20060;-43
2022/03/06 03:54:10;;;;;;;23.38;12.27;;;3.50;45.50;;;;;;5020434;28;20053;-43
2022/03/06 03:56:37;;;;;;;24.70;12.20;;;3.50;45.50;;;;;;5022396;28;20076;-43
2022/03/06 03:59:05;;;;;;;23.48;11.05;;;3.40;45.30;;;;;;5019775;28;20061;-43
2022/03/06 04:01:32;;;;;;;25.80;12.57;;;3.50;45.40;;;;;;5021031;28;20071;-43
2022/03/06 04:04:00;;;;;;;22.92;11.00;;;3.50;45.50;;;;;;5018720;28;20061;-43
2022/03/06 04:06:29;;;;;;;21.95;11.15;;;3.50;45.50;;;;;;5021677;28;20060;-44
2022/03/06 04:08:56;;;;;;;23.10;11.00;;;3.50;45.50;;;;;;5021030;28;20060;-42
2022/03/06 04:11:24;;;;;;;25.70;13.23;;;3.50;45.60;;;;;;5022229;28;20045;-43
2022/03/06 04:13:51;;;;;;;22.05;11.50;;;3.50;45.50;;;;;;5020890;28;20057;-43
2022/03/06 04:16:19;;;;;;;21.65;11.52;;;3.60;45.50;;;;;;5020665;28;20058;-44
2022/03/06 04:18:46;;;;;;;20.58;10.88;;;3.60;45.40;;;;;;5018120;28;20057;-43
2022/03/06 04:21:14;;;;;;;23.70;11.98;;;3.60;45.50;;;;;;5022703;28;20481;-42
2022/03/06 04:23:43;;;;;;;25.00;12.38;;;3.60;45.50;;;;;;5020982;28;20053;-42
2022/03/06 04:26:10;;;;;;;22.00;11.80;;;3.60;45.60;;;;;;5017919;28;20049;-44
2022/03/06 04:28:38;;;;;;;20.85;11.43;;;3.60;45.50;;;;;;5021411;28;20060;-44
2022/03/06 04:31:05;;;;;;;24.67;12.20;;;3.60;45.50;;;;;;5021320;28;20049;-43
2022/03/06 04:33:33;;;;;;;26.30;12.48;;;3.60;45.50;;;;;;5020584;28;20057;-43
2022/03/06 04:36:00;;;;;;;27.05;13.85;;;3.60;45.50;;;;;;5020421;28;20053;-43
2022/03/06 04:38:28;;;;;;;20.65;11.02;;;3.60;45.50;;;;;;5020062;28;20053;-42
2022/03/06 04:40:57;;;;;;;21.35;10.65;;;3.60;45.40;;;;;;5020405;28;20053;-43
2022/03/06 04:43:24;;;;;;;23.75;11.95;;;3.60;45.50;;;;;;5022283;28;20551;-45
2022/03/06 04:45:52;;;;;;;21.75;11.48;;;3.60;45.50;;;;;;5018763;28;20057;-45
2022/03/06 04:48:20;;;;;;;23.95;12.05;;;3.60;45.50;;;;;;5020831;28;20057;-44
2022/03/06 04:50:47;;;;;;;26.98;13.48;;;3.60;45.50;;;;;;5021185;28;20068;-42
2022/03/06 04:53:15;;;;;;;20.50;10.77;;;3.70;45.60;;;;;;5019426;28;20041;-43
2022/03/06 04:55:42;;;;;;;24.38;12.30;;;3.60;45.60;;;;;;5020539;28;20058;-44
2022/03/06 04:58:12;;;;;;;27.10;13.40;;;3.60;45.60;;;;;;5019336;28;20060;-43
2022/03/06 05:00:39;;;;;;;26.45;12.48;;;3.60;45.60;;;;;;5020746;28;20050;-47
2022/03/06 05:03:07;;;;;;;21.85;10.95;;;3.60;45.50;;;;;;5026134;28;20056;-43
2022/03/06 05:05:35;;;;;;;23.15;13.15;;;3.60;45.50;;;;;;5018127;28;20064;-42
2022/03/06 05:08:02;;;;;;;27.20;12.70;;;3.60;45.60;;;;;;5022757;28;20405;-43
2022/03/06 05:10:30;;;;;;;24.17;12.10;;;3.60;45.60;;;;;;5024340;28;20053;-43
2022/03/06 05:12:57;;;;;;;20.83;10.98;;;3.60;45.60;;;;;;5025691;28;20056;-42
2022/03/06 05:15:26;;;;;;;22.05;11.10;;;3.60;45.60;;;;;;5021078;28;20057;-42
2022/03/06 05:17:54;;;;;;;22.70;11.30;;;3.60;45.70;;;;;;5017984;28;20700;-43
2022/03/06 05:20:22;;;;;;;24.52;12.65;;;3.60;45.80;;;;;;5021001;28;20053;-43
2022/03/06 05:22:50;;;;;;;21.67;12.27;;;3.60;46.10;;;;;;5025340;28;20417;-43
2022/03/06 05:25:17;;;;;;;23.80;12.13;;;3.60;46.20;;;;;;5020199;28;20516;-43
2022/03/06 05:27:45;;;;;;;20.13;11.40;;;3.60;46.20;;;;;;5024721;28;20053;-43
2022/03/06 05:30:14;;;;;;;27.55;12.70;;;3.50;46.10;;;;;;5021651;28;20046;-43
2022/03/06 05:32:43;;;;;;;27.30;13.05;;;3.50;46.00;;;;;;5022503;28;20053;-43
2022/03/06 05:35:11;;;;;;;26.75;13.27;;;3.50;46.10;;;;;;5018751;28;20061;-43
2022/03/06 05:37:39;;;;;;;23.95;12.02;;;3.50;46.10;;;;;;5016023;28;20528;-44
2022/03/06 05:40:08;;;;;;;29.20;13.02;;;3.50;46.20;;;;;;5022173;28;20049;-44
2022/03/06 05:42:35;;;;;;;26.77;13.18;;;3.50;46.30;;;;;;5022896;28;20057;-45
2022/03/06 05:45:03;;;;;;;25.27;13.65;;;3.50;46.30;;;;;;5020697;28;20057;-45
2022/03/06 05:47:31;;;;;;;27.15;14.48;;;3.50;46.20;;;;;;5021483;28;20509;-43
2022/03/06 05:50:00;;;;;;;28.05;13.82;;;3.50;46.20;;;;;;5021104;28;20045;-45
2022/03/06 05:52:27;;;;;;;19.70;10.88;;;3.50;46.20;;;;;;5014566;28;20516;-44
2022/03/06 05:54:55;;;;;;;27.13;13.40;;;3.50;46.20;;;;;;5018856;28;20076;-43
2022/03/06 05:57:24;;;;;;;24.67;12.43;;;3.50;46.30;;;;;;5023048;28;20049;-43
2022/03/06 05:59:52;;;;;;;24.92;13.10;;;3.50;46.30;;;;;;5022176;28;20061;-43
2022/03/06 06:02:19;;;;;;;25.00;12.27;;;3.40;46.30;;;;;;5022631;28;20053;-43
2022/03/06 06:04:47;;;;;;;30.90;14.75;;;3.40;46.30;;;;;;5015093;28;20048;-43
2022/03/06 06:07:17;;;;;;;29.05;13.82;;;3.40;46.30;;;;;;5018424;28;20064;-43
2022/03/06 06:09:44;;;;;;;23.27;12.23;;;3.40;46.40;;;;;;5016799;28;20517;-43
2022/03/06 06:12:12;;;;;;;25.55;12.23;;;3.40;46.50;;;;;;5017753;28;20528;-43
2022/03/06 06:14:39;;;;;;;24.85;12.50;;;3.40;46.50;;;;;;5019938;28;20061;-43
2022/03/06 06:17:07;;;;;;;26.20;13.23;;;3.40;46.50;;;;;;5020457;28;20053;-43
2022/03/06 06:19:34;;;;;;;28.13;13.13;;;3.40;46.50;;;;;;5018878;28;20060;-44
2022/03/06 06:22:02;;;;;;;24.30;13.18;;;3.40;46.50;;;;;;5023610;28;20061;-44
2022/03/06 06:24:31;;;;;;;25.23;12.57;;;3.40;46.50;;;;;;5024127;28;20053;-43
2022/03/06 06:26:58;;;;;;;27.17;13.05;;;3.40;46.50;;;;;;5022183;28;20128;-42
2022/03/06 06:29:26;;;;;;;26.38;12.90;;;3.40;46.50;;;;;;5021794;28;20049;-49
2022/03/06 06:31:54;;;;;;;23.70;12.00;;;3.40;46.60;;;;;;5023258;28;20061;-43
2022/03/06 06:34:21;;;;;;;26.50;13.18;;;3.40;46.60;;;;;;5020528;28;20046;-43
2022/03/06 06:36:50;;;;;;;32.03;15.80;;;3.40;46.70;;;;;;5020944;28;20053;-43
2022/03/06 06:39:18;;;;;;;24.77;12.63;;;3.40;46.70;;;;;;5022711;28;20137;-43
2022/03/06 06:41:46;;;;;;;27.80;13.20;;;3.40;46.70;;;;;;5021846;28;20398;-43
2022/03/06 06:44:14;;;;;;;23.92;12.60;;;3.50;46.80;;;;;;5021877;28;20049;-43
2022/03/06 06:46:41;;;;;;;23.35;13.23;;;3.40;46.80;;;;;;5024456;28;20061;-43
2022/03/06 06:49:10;;;;;;;25.17;12.57;;;3.50;46.90;;;;;;5019775;28;20049;-43
2022/03/06 06:51:39;;;;;;;27.45;14.23;;;3.50;46.80;;;;;;5019808;28;20049;-43
2022/03/06 06:54:07;;;;;;;26.33;13.15;;;3.50;46.90;;;;;;5021250;28;20049;-46
2022/03/06 06:56:34;;;;;;;24.42;13.02;;;3.60;46.90;;;;;;5020698;28;20493;-43
2022/03/06 06:59:03;;;;;;;26.45;12.50;;;3.60;46.90;;;;;;5021355;28;20788;-43
2022/03/06 07:01:31;;;;;;;27.05;13.48;;;3.60;46.80;;;;;;5019577;28;20409;-45
2022/03/06 07:03:58;;;;;;;26.15;12.73;;;3.60;46.90;;;;;;5020999;28;20060;-43
2022/03/06 07:06:26;;;;;;;26.98;14.48;;;3.70;46.90;;;;;;5022753;28;20053;-43
2022/03/06 07:08:53;;;;;;;25.88;13.38;;;3.70;46.90;;;;;;5022422;28;20057;-43
2022/03/06 07:11:22;;;;;;;28.75;14.00;;;3.70;46.90;;;;;;5022925;28;20426;-43
2022/03/06 07:13:50;;;;;;;25.48;13.35;;;3.80;47.00;;;;;;5023052;28;20050;-43
2022/03/06 07:16:19;;;;;;;27.67;14.57;;;3.80;46.90;;;;;;5023118;28;20551;-43
2022/03/06 07:18:47;;;;;;;22.23;12.52;;;3.80;46.90;;;;;;5021056;28;20140;-43
2022/03/06 07:21:15;;;;;;;29.25;14.50;;;3.90;46.90;;;;;;5019623;28;20073;-43
2022/03/06 07:23:43;;;;;;;27.55;13.77;;;3.90;46.90;;;;;;5020721;28;20053;-43
2022/03/06 07:26:11;;;;;;;24.85;13.02;;;3.90;47.00;;;;;;5022608;28;20065;-43
2022/03/06 07:28:39;;;;;;;24.67;13.35;;;4.00;46.90;;;;;;5020514;28;20441;-43
2022/03/06 07:31:06;;;;;;;26.45;13.50;;;4.00;46.80;;;;;;5018492;28;20065;-43
2022/03/06 07:33:36;;;;;;;29.15;13.73;;;4.10;46.80;;;;;;5021644;28;20049;-43
2022/03/06 07:36:05;;;;;;;23.55;12.73;;;4.10;46.80;;;;;;5021065;28;20049;-44
2022/03/06 07:38:32;;;;;;;26.77;12.43;;;4.10;46.80;;;;;;5019960;28;20064;-43
2022/03/06 07:41:00;;;;;;;24.20;12.95;;;4.20;46.70;;;;;;5022106;28;20053;-43
2022/03/06 07:43:27;;;;;;;24.88;13.00;;;4.20;46.70;;;;;;5021362;28;20057;-43
2022/03/06 07:45:55;;;;;;;25.10;13.63;;;4.20;46.70;;;;;;5021019;28;20046;-43
2022/03/06 07:48:23;;;;;;;28.55;14.43;;;4.30;46.80;;;;;;5020634;28;20049;-43
2022/03/06 07:50:52;;;;;;;26.17;13.68;;;4.40;46.90;;;;;;5021620;28;20405;-43
2022/03/06 07:53:20;;;;;;;26.00;13.70;;;4.40;46.90;;;;;;5002658;28;20053;-43
2022/03/06 07:55:47;;;;;;;28.40;14.57;;;4.50;46.90;;;;;;5017297;28;20060;-43
2022/03/06 07:58:15;;;;;;;23.00;13.30;;;4.50;47.00;;;;;;5021644;28;20494;-43
2022/03/06 08:00:42;;;;;;;22.90;12.80;;;4.60;47.00;;;;;;5021417;28;20049;-45
2022/03/06 08:03:10;;;;;;;20.75;11.30;;;4.60;46.80;;;;;;5021289;28;20049;-42
2022/03/06 08:05:37;;;;;;;25.77;14.00;;;4.70;46.80;;;;;;5019346;28;20512;-43
2022/03/06 08:08:07;;;;;;;25.25;13.68;;;4.70;47.00;;;;;;5020588;28;20053;-43
2022/03/06 08:10:35;;;;;;;26.80;13.98;;;4.80;47.10;;;;;;5021215;28;20057;-43
2022/03/06 08:13:03;;;;;;;28.27;13.48;;;4.80;47.10;;;;;;5020797;28;20506;-43
2022/03/06 08:15:30;;;;;;;23.90;12.65;;;4.90;47.10;;;;;;5022181;28;20049;-43
2022/03/06 08:17:58;;;;;;;22.95;12.35;;;5.00;46.90;;;;;;5021950;28;20053;-43
2022/03/06 08:20:26;;;;;;;25.30;13.90;;;5.00;46.60;;;;;;5021506;28;20516;-43
2022/03/06 08:22:53;;;;;;;21.27;12.82;;;5.10;46.50;;;;;;5021742;28;20060;-43
2022/03/06 08:25:22;;;;;;;22.20;12.18;;;5.20;46.50;;;;;;5019626;28;20486;-45
2022/03/06 08:27:50;;;;;;;22.38;12.48;;;5.20;46.40;;;;;;5021968;28;20061;-43
2022/03/06 08:30:17;;;;;;;21.65;12.05;;;5.30;46.40;;;;;;5020603;28;20057;-43
2022/03/06 08:32:45;;;;;;;31.08;13.80;;;5.40;46.30;;;;;;5020445;28;20053;-44
2022/03/06 08:35:13;;;;;;;25.60;13.32;;;5.40;46.20;;;;;;5015492;28;20045;-44
2022/03/06 08:37:40;;;;;;;27.42;13.45;;;5.50;46.10;;;;;;5022466;28;20049;-43
2022/03/06 08:40:09;;;;;;;23.58;12.50;;;5.50;45.80;;;;;;5022058;28;20448;-45
2022/03/06 08:42:39;;;;;;;23.52;12.43;;;5.60;45.80;;;;;;5023171;28;20524;-46
2022/03/06 08:45:07;;;;;;;23.15;12.00;;;5.70;45.80;;;;;;5017894;28;20057;-43
2022/03/06 08:47:34;;;;;;;22.92;12.32;;;5.70;45.70;;;;;;5024332;28;20053;-43
2022/03/06 08:50:02;;;;;;;21.90;12.30;;;5.80;45.70;;;;;;5024447;28;20054;-43
2022/03/06 08:52:30;;;;;;;22.05;12.15;;;5.90;45.60;;;;;;5025532;28;20441;-43
2022/03/06 08:54:57;;;;;;;23.17;12.48;;;5.90;45.50;;;;;;5026105;28;20050;-45
2022/03/06 08:57:25;;;;;;;22.20;12.80;;;6.00;45.60;;;;;;5025414;28;20049;-43
2022/03/06 08:59:54;;;;;;;27.15;13.88;;;6.10;45.60;;;;;;5026378;28;20069;-43
2022/03/06 09:02:22;;;;;;;24.55;13.48;;;6.10;45.30;;;;;;5025631;28;20516;-44
2022/03/06 09:04:49;;;;;;;22.75;12.43;;;6.20;45.10;;;;;;5021061;28;20049;-43
2022/03/06 09:07:17;;;;;;;24.35;13.68;;;6.30;45.10;;;;;;5023105;28;20057;-43
2022/03/06 09:09:44;;;;;;;25.13;13.77;;;6.30;45.00;;;;;;5022157;28;20053;-43
2022/03/06 09:12:12;;;;;;;23.65;13.35;;;6.30;44.90;;;;;;5024551;28;20072;-43
2022/03/06 09:14:39;;;;;;;22.33;12.65;;;6.40;44.80;;;;;;5024472;28;20402;-46
2022/03/06 09:17:09;;;;;;;25.70;15.02;;;6.40;44.70;;;;;;5026024;28;20060;-43
2022/03/06 09:19:36;;;;;;;28.10;15.82;;;6.40;44.60;;;;;;5023699;28;20061;-43
2022/03/06 09:22:04;;;;;;;34.83;20.48;;;6.40;44.60;;;;;;5024829;28;20056;-43
2022/03/06 09:24:32;;;;;;;38.75;22.45;;;6.40;44.60;;;;;;5024945;28;20698;-43
2022/03/06 09:27:00;;;;;;;27.52;16.17;;;6.40;44.50;;;;;;5025230;28;20068;-44
2022/03/06 09:29:27;;;;;;;26.30;15.18;;;6.40;44.60;;;;;;5024980;28;20084;-43
2022/03/06 09:31:55;;;;;;;27.98;15.70;;;6.40;44.60;;;;;;5025594;28;20060;-47
2022/03/06 09:34:24;;;;;;;31.25;16.92;;;6.40;44.60;;;;;;5022934;28;20496;-43
2022/03/06 09:36:51;;;;;;;29.52;16.13;;;6.40;44.70;;;;;;5022114;28;20069;-43
2022/03/06 09:39:19;;;;;;;27.35;15.52;;;6.50;44.80;;;;;;5024091;28;20494;-44
2022/03/06 09:41:49;;;;;;;30.95;17.10;;;6.50;44.90;;;;;;5024951;28;20053;-44
2022/03/06 09:44:17;;;;;;;31.95;17.83;;;6.50;45.00;;;;;;5024207;28;20041;-44
2022/03/06 09:46:44;;;;;;;32.42;17.20;;;6.50;45.00;;;;;;5023758;28;20060;-43
2022/03/06 09:49:12;;;;;;;30.27;16.40;;;6.50;45.00;;;;;;5024105;28;20049;-44
2022/03/06 09:51:42;;;;;;;30.15;16.77;;;6.50;44.80;;;;;;5023733;28;20045;-43
2022/03/06 09:54:11;;;;;;;31.73;16.52;;;6.50;44.70;;;;;;5024217;28;20050;-43
2022/03/06 09:56:39;;;;;;;28.38;16.45;;;6.50;44.90;;;;;;5025323;28;20060;-43
2022/03/06 09:59:07;;;;;;;31.15;16.30;;;6.50;44.80;;;;;;5023956;28;20053;-43
2022/03/06 10:01:34;;;;;;;28.45;15.32;;;6.50;44.70;;;;;;5024297;28;20053;-42
2022/03/06 10:04:21;;;;;;;32.42;16.77;;;6.50;44.70;;;;;;5023708;28;20413;-43
2022/03/06 10:07:04;;;;;;;27.50;15.15;;;6.50;44.50;;;;;;5024766;28;20065;-45
2022/03/06 10:09:33;;;;;;;26.85;15.13;;;6.50;44.40;;;;;;5024124;28;20413;-43
2022/03/06 10:12:01;;;;;;;26.98;15.00;;;6.60;44.30;;;;;;5024285;28;20429;-47
2022/03/06 10:14:39;;;;;;;25.58;14.55;;;6.60;44.30;;;;;;5023889;28;20053;-43
2022/03/06 10:17:15;;;;;;;25.55;14.13;;;6.70;43.90;;;;;;5024209;28;20056;-43
2022/03/06 10:19:57;;;;;;;21.48;13.20;;;6.70;43.30;;;;;;5021914;28;20061;-43
2022/03/06 10:22:28;;;;;;;26.48;14.32;;;6.80;43.60;;;;;;5023437;28;20049;-43
2022/03/06 10:24:59;;;;;;;29.58;15.05;;;6.80;43.40;;;;;;5022220;28;20049;-43
2022/03/06 10:27:46;;;;;;;24.92;13.52;;;6.90;43.40;;;;;;5018107;28;20056;-43
2022/03/06 10:30:31;;;;;;;24.05;12.70;;;7.00;43.60;;;;;;5023115;28;20045;-43
2022/03/06 10:33:00;;;;;;;21.92;11.63;;;7.00;43.30;;;;;;5023251;28;20061;-46
2022/03/06 10:35:34;;;;;;;21.55;11.65;;;7.20;43.20;;;;;;5022110;28;20053;-42
2022/03/06 10:38:27;;;;;;;21.67;11.93;;;7.20;42.70;;;;;;5023554;28;20495;-45
2022/03/06 10:40:56;;;;;;;20.15;11.48;;;7.30;42.40;;;;;;5023490;28;20528;-43
2022/03/06 10:43:25;;;;;;;20.02;10.93;;;7.30;42.10;;;;;;5023441;28;20727;-43
2022/03/06 10:46:06;;;;;;;19.80;11.90;;;7.40;41.90;;;;;;5022666;28;20384;-44
2022/03/06 10:48:34;;;;;;;20.55;11.95;;;7.50;41.50;;;;;;5021402;28;20049;-43
2022/03/06 10:51:02;;;;;;;17.55;10.73;;;7.60;41.40;;;;;;5022244;28;20049;-43
2022/03/06 10:53:32;;;;;;;19.40;11.63;;;7.60;41.20;;;;;;5023255;28;20064;-46
2022/03/06 10:56:08;;;;;;;19.20;10.60;;;7.70;40.80;;;;;;5016708;28;20060;-43
2022/03/06 10:58:39;;;;;;;19.55;11.00;;;7.80;40.90;;;;;;5014454;28;20057;-42
2022/03/06 11:01:07;;;;;;;19.95;11.32;;;7.90;40.70;;;;;;5016870;28;20528;-45
2022/03/06 11:03:36;;;;;;;19.23;11.25;;;8.00;40.50;;;;;;5018429;28;20080;-43
2022/03/06 11:06:04;;;;;;;17.88;10.95;;;8.10;40.40;;;;;;5016967;28;20045;-43
2022/03/06 11:08:34;;;;;;;17.63;10.55;;;8.20;40.10;;;;;;5022657;28;20521;-42
2022/03/06 11:11:02;;;;;;;18.00;10.30;;;8.20;39.90;;;;;;5021625;28;20045;-43
2022/03/06 11:13:30;;;;;;;18.00;11.23;;;8.30;39.80;;;;;;5023326;28;20489;-43
2022/03/06 11:15:58;;;;;;;20.60;11.18;;;8.40;39.60;;;;;;5023043;28;20057;-43
2022/03/06 11:18:26;;;;;;;22.02;11.73;;;8.40;39.50;;;;;;5022552;28;20073;-44
2022/03/06 11:20:55;;;;;;;19.98;11.63;;;8.50;39.30;;;;;;5022543;28;20053;-43
2022/03/06 11:23:30;;;;;;;17.23;10.15;;;8.50;39.00;;;;;;5022472;28;20049;-43
2022/03/06 11:26:39;;;;;;;22.73;12.63;;;8.50;38.30;;;;;;5023576;28;20084;-43
2022/03/06 11:29:48;;;;;;;19.77;11.13;;;8.50;38.10;;;;;;4995779;28;20536;-43
2022/03/06 11:32:24;;;;;;;21.35;11.48;;;8.60;38.30;;;;;;4960272;28;20058;-43
2022/03/06 11:34:54;;;;;;;20.83;11.48;;;8.60;38.50;;;;;;5021190;28;20398;-43
2022/03/06 11:37:24;;;;;;;22.70;11.52;;;8.60;38.40;;;;;;5022913;28;20485;-43
2022/03/06 11:39:52;;;;;;;19.25;11.52;;;8.60;38.40;;;;;;5022458;28;20413;-43
2022/03/06 11:42:55;;;;;;;20.10;11.90;;;8.60;38.60;;;;;;5022430;28;20057;-43
2022/03/06 11:45:45;;;;;;;20.33;11.43;;;8.60;38.40;;;;;;5022222;28;20609;-43
2022/03/06 11:48:26;;;;;;;18.80;11.05;;;8.60;38.00;;;;;;5022030;28;20424;-42
2022/03/06 11:51:28;;;;;;;20.50;10.98;;;8.60;38.20;;;;;;5022243;28;20064;-42
2022/03/06 11:53:57;;;;;;;20.10;11.48;;;8.60;38.40;;;;;;5022919;28;20413;-42
2022/03/06 11:56:47;;;;;;;23.98;11.80;;;8.70;38.60;;;;;;5023138;28;20045;-43
2022/03/06 11:59:49;;;;;;;20.75;11.50;;;8.60;38.10;;;;;;5021767;28;20061;-43
2022/03/06 12:02:19;;;;;;;20.23;11.55;;;8.70;38.20;;;;;;5021124;28;20058;-44
2022/03/06 12:04:52;;;;;;;19.55;11.68;;;8.60;38.40;;;;;;5019753;28;20080;-42
2022/03/06 12:07:21;;;;;;;19.25;11.18;;;8.70;38.60;;;;;;5021763;28;20053;-42
2022/03/06 12:09:52;;;;;;;19.70;11.43;;;8.70;38.40;;;;;;5021527;28;20061;-42
2022/03/06 12:12:21;;;;;;;18.20;11.23;;;8.70;38.40;;;;;;5021056;28;20061;-43
2022/03/06 12:14:52;;;;;;;18.23;10.57;;;8.70;38.20;;;;;;5021297;28;20798;-42
2022/03/06 12:17:22;;;;;;;18.20;11.07;;;8.70;38.10;;;;;;5021107;28;20056;-43
2022/03/06 12:20:28;;;;;;;18.38;10.60;;;8.70;38.10;;;;;;5020982;28;20053;-44
2022/03/06 12:23:03;;;;;;;20.77;11.60;;;8.80;37.90;;;;;;5021858;28;20056;-44
2022/03/06 12:25:36;;;;;;;18.25;10.57;;;8.80;38.30;;;;;;5022296;28;20057;-44
2022/03/06 12:28:25;;;;;;;17.88;10.63;;;8.80;38.70;;;;;;5022407;28;20489;-43
2022/03/06 12:30:56;;;;;;;19.38;11.50;;;8.90;38.30;;;;;;5022625;28;20058;-43
2022/03/06 12:33:37;;;;;;;19.77;11.38;;;9.00;38.60;;;;;;5021017;28;20433;-45
2022/03/06 12:36:14;;;;;;;15.60;9.80;;;9.00;38.20;;;;;;5022892;28;20053;-42
2022/03/06 12:38:43;;;;;;;19.15;11.50;;;9.10;38.10;;;;;;5022611;28;20497;-42
2022/03/06 12:41:11;;;;;;;19.42;11.45;;;9.20;38.00;;;;;;5022440;28;20497;-43
2022/03/06 12:43:48;;;;;;;15.52;10.20;;;9.30;37.90;;;;;;5021721;28;20513;-43
2022/03/06 12:46:19;;;;;;;19.17;10.95;;;9.30;37.70;;;;;;5021654;28;20050;-45
2022/03/06 12:48:48;;;;;;;18.50;11.43;;;9.40;37.60;;;;;;5020924;28;20056;-43